Flight Track Log - Related Links

Times and Time Zones

All times are in EDT time to prevent confusion due to time zone crossing. See the CSN3452 flight status page for this flight to view local times or setup timezone preferences in your user account.

Time Position Orientation Groundspeed Altitude Reporting Facility
EDT Latitude Longitude Course Direction KTS MPH feet Rate Location/Type
Tue 07:59:00 AM 26.5823 100.4153 123° Southeast  Level Estimated
Tue 08:00:00 AM 26.4852 100.5845 123° Southeast  Level Estimated
Tue 08:01:00 AM 26.3879 100.7533 123° Southeast  Level Estimated
Tue 08:02:00 AM 26.2904 100.9219 123° Southeast  Level Estimated
Tue 08:03:00 AM 26.1927 101.0902 123° Southeast  Level Estimated
Tue 08:04:00 AM 26.0948 101.2583 123° Southeast  Level Estimated
Tue 08:05:00 AM 25.9967 101.4260 123° Southeast  Level Estimated
Tue 08:06:00 AM 25.8985 101.5935 123° Southeast  Level Estimated
Tue 08:07:00 AM 25.8000 101.7607 123° Southeast  Level Estimated
Tue 08:08:00 AM 25.7014 101.9276 123° Southeast  Level Estimated
Tue 08:09:00 AM 25.6025 102.0942 123° Southeast  Level Estimated
Tue 08:10:00 AM 25.5035 102.2606 123° Southeast  Level Estimated
Tue 08:11:00 AM 25.4043 102.4267 123° Southeast  Level Estimated
Tue 08:12:00 AM 25.3049 102.5925 124° Southeast  Level Estimated
Tue 08:13:00 AM 25.2053 102.7580 124° Southeast  Level Estimated
Tue 08:14:00 AM 25.1055 102.9233 124° Southeast  Level Estimated
Tue 08:15:00 AM 25.1019 102.9292 124° Southeast  Level Estimated
Tue 08:16:00 AM 25.1019 102.9292 326° Northwest  Level Estimated
Tue 08:17:00 AM 25.1019 102.9292 326° Northwest  Level Estimated
Tue 08:18:00 AM 25.1019 102.9292 326° Northwest  Level Estimated
Tue 08:19:00 AM 25.1019 102.9292 326° Northwest  Level Estimated
Tue 08:20:00 AM 25.1019 102.9292 326° Northwest  Level Estimated
Tue 08:21:00 AM 25.1019 102.9292 326° Northwest  Level Estimated
Tue 08:22:00 AM 25.1019 102.9292 326° Northwest  Level Estimated
Tue 08:23:00 AM 25.1019 102.9292 326° Northwest  Level Estimated
Tue 08:24:00 AM 25.1019 102.9292 326° Northwest  Level Estimated
Tue 08:25:00 AM 25.1019 102.9292 326° Northwest  Level Estimated
Tue 08:26:00 AM 25.1019 102.9292 326° Northwest  Level Estimated
Tue 08:27:00 AM 25.1019 102.9292 326° Northwest  Level Estimated
Tue 08:28:00 AM 25.1019 102.9292 326° Northwest  Level Estimated
Tue 08:29:00 AM 25.1019 102.9292 326° Northwest  Level Estimated
Tue 08:30:00 AM 25.1019 102.9292 326° Northwest  Level Estimated
Tue 08:31:00 AM 25.1019 102.9292 326° Northwest  Level Estimated

Login

Don't have an account? Register now (free) for customized features, flight alerts, and more!